Time;durP1;ratioP1;P1;durP2;ratioP2;P2;SDS_P1;SDS_P2;PMS_P1;PMS_P2;Temp;Humidity;BMP_temperature;BMP_pressure;BME280_temperature;BME280_humidity;BME280_pressure;Samples;Min_cycle;Max_cycle;Signal;HPM_P1;HPM_P2
2022/10/13 00:01:27;;;;;;;8.05;4.32;;;;;;;8.10;86.90;95378.91;5089491;28;20228;-70
2022/10/13 00:03:55;;;;;;;10.50;5.25;;;;;;;8.20;86.82;95395.75;5089966;28;20226;-70
2022/10/13 00:06:23;;;;;;;12.00;4.32;;;;;;;8.15;87.53;95395.03;5089731;28;20223;-70
2022/10/13 00:08:50;;;;;;;10.25;4.97;;;;;;;8.23;86.77;95398.97;5098957;28;20263;-70
2022/10/13 00:11:19;;;;;;;15.93;5.10;;;;;;;8.20;87.71;95393.06;5096474;28;20680;-70
2022/10/13 00:13:48;;;;;;;10.70;4.60;;;;;;;8.16;87.48;95389.34;5100847;28;20271;-70
2022/10/13 00:16:17;;;;;;;11.73;5.00;;;;;;;8.09;87.92;95377.31;5089983;28;20222;-69
2022/10/13 00:18:45;;;;;;;8.48;4.30;;;;;;;8.13;88.16;95386.44;5100462;28;20717;-71
2022/10/13 00:21:14;;;;;;;9.63;5.57;;;;;;;8.11;88.04;95383.22;5092028;28;20206;-71
2022/10/13 00:23:41;;;;;;;9.55;4.35;;;;;;;8.18;88.22;95375.56;5090160;28;20202;-71
2022/10/13 00:26:12;;;;;;;9.10;4.75;;;;;;;8.11;88.45;95377.81;5090072;28;20206;-71
2022/10/13 00:28:39;;;;;;;10.30;5.40;;;;;;;8.17;88.83;95373.97;5090066;28;20279;-71
2022/10/13 00:31:17;;;;;;;8.40;4.32;;;;;;;8.18;88.88;95375.56;5089959;28;20275;-72
2022/10/13 00:33:43;;;;;;;10.52;4.97;;;;;;;8.21;88.69;95375.75;5089796;28;20271;-71
2022/10/13 00:36:10;;;;;;;9.48;5.15;;;;;;;8.18;88.16;95370.19;5096688;28;20205;-71
2022/10/13 00:38:37;;;;;;;12.00;5.03;;;;;;;8.10;88.43;95362.72;5109879;28;20237;-70
2022/10/13 00:41:05;;;;;;;8.35;4.45;;;;;;;8.12;88.42;95365.94;5109787;28;20232;-71
2022/10/13 00:43:48;;;;;;;8.88;4.35;;;;;;;8.11;89.01;95364.34;5109714;28;20274;-70
2022/10/13 00:46:16;;;;;;;8.75;4.63;;;;;;;8.12;89.13;95365.94;5110055;28;20665;-70
2022/10/13 00:48:44;;;;;;;9.32;5.00;;;;;;;8.17;89.52;95357.78;5109262;28;20657;-70
2022/10/13 00:51:14;;;;;;;9.65;4.80;;;;;;;8.17;89.18;95361.28;5109370;28;20263;-70
2022/10/13 00:53:41;;;;;;;7.13;4.07;;;;;;;8.19;89.01;95356.41;5108778;28;20205;-70
2022/10/13 00:56:11;;;;;;;8.98;4.63;;;;;;;8.20;88.92;95362.56;5109325;28;20197;-70
2022/10/13 00:58:39;;;;;;;7.47;4.53;;;;;;;8.11;88.74;95356.25;5108856;28;20229;-70
2022/10/13 01:01:06;;;;;;;9.32;5.20;;;;;;;8.17;88.81;95360.47;5109578;28;20246;-70
2022/10/13 01:03:36;;;;;;;9.57;4.95;;;;;;;8.16;89.03;95361.56;5109120;28;20237;-70
2022/10/13 01:06:06;;;;;;;9.90;5.18;;;;;;;8.14;89.34;95363.75;5109390;28;20198;-71
2022/10/13 01:08:33;;;;;;;11.63;4.20;;;;;;;8.17;89.25;95357.78;5103942;28;20217;-71
2022/10/13 01:11:14;;;;;;;8.02;5.00;;;;;;;8.16;88.98;95361.56;5088972;28;20194;-71
2022/10/13 01:13:50;;;;;;;16.20;6.32;;;;;;;8.26;88.78;95364.09;5097049;28;20653;-71
2022/10/13 01:16:29;;;;;;;8.45;5.03;;;;;;;8.07;88.60;95364.13;5095528;28;20679;-71
2022/10/13 01:19:11;;;;;;;9.05;4.97;;;;;;;8.07;89.39;95355.22;5108577;28;20233;-71
2022/10/13 01:21:44;;;;;;;13.02;5.13;;;;;;;8.11;89.31;95361.63;5100648;28;20214;-72
2022/10/13 01:24:37;;;;;;;15.63;5.68;;;;;;;8.03;89.96;95355.03;5089707;28;20256;-72
2022/10/13 01:27:14;;;;;;;8.48;4.38;;;;;;;7.84;90.43;95359.63;5109087;28;20294;-72
2022/10/13 01:30:05;;;;;;;7.82;4.55;;;;;;;7.74;91.29;95363.28;5109121;28;20551;-70
2022/10/13 01:32:41;;;;;;;8.55;5.18;;;;;;;7.74;90.58;95360.56;5112540;28;20270;-71
2022/10/13 01:35:12;;;;;;;17.60;5.60;;;;;;;7.89;90.26;95356.06;5112312;28;20205;-71
2022/10/13 01:37:45;;;;;;;12.07;5.95;;;;;;;7.92;90.04;95363.56;5112423;28;20263;-71
2022/10/13 01:40:22;;;;;;;12.63;6.07;;;;;;;7.91;90.04;95357.38;5112990;28;20690;-71
2022/10/13 01:42:57;;;;;;;9.38;4.78;;;;;;;7.96;89.22;95361.88;5112404;28;20217;-71
2022/10/13 01:45:31;;;;;;;14.30;6.28;;;;;;;7.83;90.01;95358.81;5112687;28;20201;-71
2022/10/13 01:48:00;;;;;;;10.25;5.05;;;;;;;7.79;90.61;95357.78;5112476;28;20197;-71
2022/10/13 01:50:28;;;;;;;7.30;4.85;;;;;;;7.90;90.83;95353.06;5093856;28;20255;-71
2022/10/13 01:52:58;;;;;;;10.07;5.45;;;;;;;7.87;91.30;95358.22;5104127;28;20243;-71
2022/10/13 01:55:25;;;;;;;11.93;5.72;;;;;;;7.94;91.15;95353.25;5106381;28;20237;-71
2022/10/13 01:57:52;;;;;;;10.93;5.78;;;;;;;7.95;91.05;95354.88;5092047;28;20230;-71
2022/10/13 02:00:21;;;;;;;10.18;5.50;;;;;;;7.87;91.30;95358.22;5111670;28;20254;-71
2022/10/13 02:03:01;;;;;;;9.65;4.65;;;;;;;7.94;91.23;95347.88;5112008;28;20997;-71
2022/10/13 02:05:35;;;;;;;11.30;4.68;;;;;;;7.85;90.93;95353.94;5100554;28;20195;-71
2022/10/13 02:08:06;;;;;;;11.50;5.22;;;;;;;7.80;92.79;95354.00;5090876;28;20229;-71
2022/10/13 02:10:40;;;;;;;10.95;4.80;;;;;;;7.74;92.13;95344.38;5111990;28;20197;-71
2022/10/13 02:13:11;;;;;;;10.30;5.65;;;;;;;7.69;92.62;95349.03;5112300;28;20247;-71
2022/10/13 02:15:42;;;;;;;8.68;4.97;;;;;;;7.74;92.67;95344.38;5099826;28;20206;-71
2022/10/13 02:18:13;;;;;;;13.73;4.97;;;;;;;7.76;92.82;95346.81;5105240;28;20225;-71
2022/10/13 02:20:41;;;;;;;7.88;5.05;;;;;;;7.80;93.02;95345.91;5091458;28;20571;-71
2022/10/13 02:23:12;;;;;;;10.13;5.18;;;;;;;7.76;92.77;95347.59;5091030;28;20708;-71
2022/10/13 02:25:40;;;;;;;11.27;5.72;;;;;;;7.77;92.98;95341.13;5104796;28;20342;-71
2022/10/13 02:28:08;;;;;;;7.15;4.40;;;;;;;7.82;93.01;95346.41;5111558;28;20751;-71
2022/10/13 02:30:35;;;;;;;11.63;5.00;;;;;;;7.90;92.91;95344.16;5111444;28;20342;-71
2022/10/13 02:33:03;;;;;;;10.27;5.18;;;;;;;7.90;92.62;95331.50;5112025;28;20209;-71
2022/10/13 02:35:32;;;;;;;10.38;5.30;;;;;;;7.92;92.43;95339.28;5111986;28;20201;-71
2022/10/13 02:37:59;;;;;;;9.32;4.55;;;;;;;7.93;91.84;95321.97;5110585;28;20653;-71
2022/10/13 02:40:27;;;;;;;25.13;6.07;;;;;;;7.81;91.64;95323.22;5110472;28;20197;-71
2022/10/13 02:42:53;;;;;;;9.07;5.05;;;;;;;7.78;92.38;95329.25;5087555;28;20766;-71
2022/10/13 02:45:20;;;;;;;10.80;4.95;;;;;;;7.71;92.88;95334.19;5107186;28;20198;-71
2022/10/13 02:47:47;;;;;;;12.23;6.53;;;;;;;7.73;93.08;95323.91;5111689;28;20209;-71
2022/10/13 02:50:14;;;;;;;10.25;5.25;;;;;;;7.76;93.11;95326.03;5110839;28;20233;-71
2022/10/13 02:52:42;;;;;;;9.20;5.32;;;;;;;7.77;93.05;95327.63;5111122;28;20427;-71
2022/10/13 02:55:09;;;;;;;11.63;4.50;;;;;;;7.72;93.50;95327.69;5110994;28;20243;-71
2022/10/13 02:57:36;;;;;;;13.55;5.90;;;;;;;7.74;93.51;95324.72;5109984;28;20562;-71
2022/10/13 03:00:06;;;;;;;10.35;4.47;;;;;;;7.70;93.79;95321.78;5110531;28;20262;-71
2022/10/13 03:02:32;;;;;;;8.55;4.03;;;;;;;7.72;94.08;95325.00;5110967;28;20241;-71
2022/10/13 03:04:59;;;;;;;9.77;4.18;;;;;;;7.78;93.79;95318.44;5106583;28;20202;-71
2022/10/13 03:07:26;;;;;;;8.30;4.38;;;;;;;7.78;93.52;95312.25;5090469;28;20279;-71
2022/10/13 03:09:54;;;;;;;11.10;4.68;;;;;;;7.82;93.35;95314.06;5108966;28;20227;-71
2022/10/13 03:12:21;;;;;;;8.65;4.20;;;;;;;7.80;93.10;95310.84;5110691;28;20206;-71
2022/10/13 03:14:48;;;;;;;8.25;4.25;;;;;;;7.78;93.15;95313.06;5105709;28;20194;-71
2022/10/13 03:17:15;;;;;;;9.73;5.22;;;;;;;7.72;93.17;95314.22;5102064;28;20202;-71
2022/10/13 03:19:41;;;;;;;9.02;4.28;;;;;;;7.72;93.13;95319.59;5110454;28;20576;-71
2022/10/13 03:22:08;;;;;;;11.82;5.03;;;;;;;7.76;93.13;95326.03;5102524;28;20198;-71
2022/10/13 03:24:35;;;;;;;10.35;4.65;;;;;;;7.74;92.99;95322.81;5095767;28;20532;-71
2022/10/13 03:27:03;;;;;;;9.48;5.13;;;;;;;7.63;92.61;95326.75;5110271;28;20350;-71
2022/10/13 03:29:30;;;;;;;11.27;5.00;;;;;;;7.41;94.38;95329.22;5110110;28;20255;-70
2022/10/13 03:31:57;;;;;;;8.68;4.93;;;;;;;7.45;94.43;95330.25;5110288;28;20263;-71
2022/10/13 03:34:24;;;;;;;6.47;4.57;;;;;;;7.58;93.84;95334.09;5110410;28;20696;-71
2022/10/13 03:36:51;;;;;;;14.45;7.60;;;;;;;7.52;93.70;95336.06;5110824;28;20263;-71
2022/10/13 03:39:17;;;;;;;10.80;4.97;;;;;;;7.58;93.58;95331.41;5110024;28;20777;-71
2022/10/13 03:41:45;;;;;;;8.05;5.72;;;;;;;7.57;93.45;95338.69;5110511;28;20625;-71
2022/10/13 03:44:13;;;;;;;9.75;5.18;;;;;;;7.57;93.76;95327.91;5110252;28;20198;-71
2022/10/13 03:46:40;;;;;;;13.75;7.38;;;;;;;7.64;93.91;95335.66;5096281;28;20471;-71
2022/10/13 03:49:07;;;;;;;10.88;6.32;;;;;;;7.65;93.79;95335.38;5095673;28;20571;-71
2022/10/13 03:51:33;;;;;;;12.80;6.72;;;;;;;7.77;93.64;95327.63;5109912;28;20213;-71
2022/10/13 03:54:00;;;;;;;11.55;5.97;;;;;;;7.69;94.28;95330.97;5109739;28;20205;-71
2022/10/13 03:56:28;;;;;;;15.65;5.70;;;;;;;7.65;94.65;95332.66;5099060;28;20213;-71
2022/10/13 03:58:56;;;;;;;11.98;5.40;;;;;;;7.66;94.78;95326.16;5095816;28;20233;-71
2022/10/13 04:01:26;;;;;;;8.18;5.68;;;;;;;7.67;94.79;95322.38;5109852;28;20210;-72
2022/10/13 04:03:54;;;;;;;7.30;4.70;;;;;;;7.61;95.04;95311.97;5110034;28;20206;-70
2022/10/13 04:06:21;;;;;;;7.60;5.07;;;;;;;7.65;95.28;95319.19;5109645;28;20282;-71
2022/10/13 04:08:49;;;;;;;11.90;5.65;;;;;;;7.64;95.03;95317.56;5109509;28;20517;-71
2022/10/13 04:11:16;;;;;;;12.77;5.68;;;;;;;7.64;94.80;95322.16;5108338;28;20259;-70
2022/10/13 04:13:44;;;;;;;8.93;4.60;;;;;;;7.68;94.85;95323.97;5110025;28;20243;-70
2022/10/13 04:16:15;;;;;;;13.00;6.00;;;;;;;7.70;94.86;95313.69;5095456;28;20201;-70
2022/10/13 04:18:44;;;;;;;14.80;5.70;;;;;;;7.74;94.83;95316.63;5099332;28;20245;-70
2022/10/13 04:21:12;;;;;;;9.13;5.80;;;;;;;7.75;94.71;95319.03;5089537;28;20194;-70
2022/10/13 04:23:38;;;;;;;8.50;5.22;;;;;;;7.74;94.69;95311.22;5088324;28;20622;-70
2022/10/13 04:26:06;;;;;;;10.85;5.13;;;;;;;7.69;94.57;95314.78;5088817;28;20206;-69
2022/10/13 04:28:34;;;;;;;11.50;6.43;;;;;;;7.65;94.96;95310.28;5098902;28;20851;-69
2022/10/13 04:31:01;;;;;;;12.75;5.75;;;;;;;7.64;95.20;95312.19;5107798;28;20575;-69
2022/10/13 04:33:28;;;;;;;9.45;4.45;;;;;;;7.66;95.31;95303.78;5108380;28;20628;-69
2022/10/13 04:35:57;;;;;;;9.70;5.28;;;;;;;7.71;95.36;95307.22;5109137;28;20247;-69
2022/10/13 04:38:24;;;;;;;10.43;4.72;;;;;;;7.71;95.02;95307.22;5096522;28;20821;-69
2022/10/13 04:40:50;;;;;;;8.40;4.68;;;;;;;7.72;94.79;95303.44;5095088;28;20278;-69
2022/10/13 04:43:17;;;;;;;8.95;5.30;;;;;;;7.81;94.66;95312.44;5109366;28;20258;-69
2022/10/13 04:45:44;;;;;;;17.52;5.65;;;;;;;7.78;94.63;95312.25;5089759;28;20354;-70
2022/10/13 04:48:11;;;;;;;11.25;5.70;;;;;;;7.76;94.60;95309.84;5102216;28;20237;-70
2022/10/13 04:50:38;;;;;;;11.88;6.25;;;;;;;7.91;94.64;95310.72;5109935;28;20237;-70
2022/10/13 04:53:06;;;;;;;12.25;6.65;;;;;;;8.00;94.38;95304.34;5109124;28;20679;-70
2022/10/13 04:55:36;;;;;;;22.00;8.25;;;;;;;7.99;94.98;95312.72;5083104;28;20286;-70
2022/10/13 04:58:03;;;;;;;12.73;6.55;;;;;;;8.12;95.57;95312.78;5109982;28;20321;-70
2022/10/13 05:00:30;;;;;;;16.10;6.97;;;;;;;8.13;95.77;95318.97;5109267;28;20678;-70
2022/10/13 05:02:56;;;;;;;14.85;7.25;;;;;;;8.16;96.22;95318.41;5108064;28;20270;-70
2022/10/13 05:05:23;;;;;;;15.85;7.15;;;;;;;8.29;96.42;95325.72;5110068;28;20290;-69
2022/10/13 05:07:49;;;;;;;9.85;5.50;;;;;;;8.23;96.93;95318.81;5112584;28;20254;-70
2022/10/13 05:10:18;;;;;;;15.60;7.72;;;;;;;8.43;96.32;95318.50;5112610;28;20274;-69
2022/10/13 05:12:44;;;;;;;17.40;8.02;;;;;;;8.59;95.62;95312.81;5112911;28;20206;-69
2022/10/13 05:15:11;;;;;;;19.08;8.15;;;;;;;8.77;94.78;95322.75;5104796;28;20262;-70
2022/10/13 05:17:38;;;;;;;13.13;7.22;;;;;;;8.99;93.94;95325.56;5108299;28;20262;-69
2022/10/13 05:20:06;;;;;;;22.33;7.07;;;;;;;9.00;93.57;95339.88;5113288;28;20560;-69
2022/10/13 05:22:32;;;;;;;23.13;8.80;;;;;;;9.03;93.19;95337.38;5097449;28;20234;-69
2022/10/13 05:24:59;;;;;;;16.27;8.80;;;;;;;8.97;92.98;95343.19;5101419;28;20254;-69
2022/10/13 05:27:27;;;;;;;30.45;9.18;;;;;;;9.15;93.27;95340.41;5112285;28;20244;-70
2022/10/13 05:29:54;;;;;;;23.52;8.57;;;;;;;9.36;92.41;95342.66;5103458;28;20301;-70
2022/10/13 05:32:21;;;;;;;14.85;8.10;;;;;;;9.36;92.33;95342.66;5091238;28;20202;-70
2022/10/13 05:34:48;;;;;;;21.45;9.52;;;;;;;9.51;92.26;95347.75;5101375;28;20198;-71
2022/10/13 05:37:17;;;;;;;12.18;7.40;;;;;;;9.49;91.74;95349.97;5112834;28;20221;-71
2022/10/13 05:39:44;;;;;;;15.38;7.97;;;;;;;9.69;91.23;95354.16;5113447;28;20584;-70
2022/10/13 05:42:10;;;;;;;16.15;7.53;;;;;;;9.83;90.69;95355.72;5112475;28;20221;-70
2022/10/13 05:44:39;;;;;;;32.00;8.43;;;;;;;9.99;90.56;95364.28;5103276;28;20199;-70
2022/10/13 05:47:06;;;;;;;22.20;7.93;;;;;;;10.36;89.72;95357.78;5095947;28;20206;-70
2022/10/13 05:49:35;;;;;;;18.02;9.40;;;;;;;10.74;88.15;95357.38;5113016;28;20302;-71
2022/10/13 05:52:06;;;;;;;20.35;8.93;;;;;;;11.09;86.02;95361.84;5112350;28;20648;-70
2022/10/13 05:54:36;;;;;;;14.07;7.25;;;;;;;11.15;85.59;95360.59;5112589;28;20198;-70
2022/10/13 05:57:06;;;;;;;24.15;10.02;;;;;;;11.66;83.95;95354.53;5112784;28;20209;-70
2022/10/13 05:59:37;;;;;;;18.38;8.77;;;;;;;11.87;82.58;95362.91;5112675;28;20225;-70
2022/10/13 06:02:07;;;;;;;14.00;8.23;;;;;;;12.33;81.18;95365.00;5112322;28;20237;-70
2022/10/13 06:04:38;;;;;;;17.08;8.40;;;;;;;12.77;79.30;95369.28;5111597;28;20614;-70
2022/10/13 06:07:06;;;;;;;27.77;10.63;;;;;;;12.70;77.90;95363.53;5112490;28;20226;-70
2022/10/13 06:09:36;;;;;;;23.55;9.25;;;;;;;12.85;77.49;95353.28;5098507;28;20669;-70
2022/10/13 06:12:04;;;;;;;13.52;7.38;;;;;;;13.29;76.25;95352.03;5099758;28;20201;-70
2022/10/13 06:14:30;;;;;;;16.08;8.70;;;;;;;13.61;75.42;95354.13;5109780;28;20221;-70
2022/10/13 06:16:57;;;;;;;21.50;8.52;;;;;;;14.51;73.90;95356.38;5101269;28;20202;-70
2022/10/13 06:19:26;;;;;;;19.50;9.13;;;;;;;15.38;70.15;95343.41;5112402;28;20229;-70
2022/10/13 06:21:53;;;;;;;16.60;8.40;;;;;;;16.15;66.63;95338.81;5106003;28;20203;-70
2022/10/13 06:24:20;;;;;;;19.27;9.10;;;;;;;16.38;65.58;95346.53;5094821;28;20267;-70
2022/10/13 06:26:47;;;;;;;23.80;7.25;;;;;;;15.84;65.47;95344.13;5112583;28;20626;-70
2022/10/13 06:29:13;;;;;;;18.88;11.65;;;;;;;16.57;63.41;95338.47;5112077;28;20220;-70
2022/10/13 06:31:40;;;;;;;17.42;9.80;;;;;;;17.11;61.38;95340.75;5112003;28;20206;-70
2022/10/13 06:34:07;;;;;;;20.20;9.43;;;;;;;16.17;62.64;95338.50;5112059;28;20251;-70
2022/10/13 06:36:35;;;;;;;17.83;8.00;;;;;;;15.82;64.42;95336.28;5111025;28;20202;-70
2022/10/13 06:39:02;;;;;;;13.50;7.45;;;;;;;16.35;62.99;95332.41;5112240;28;20294;-70
2022/10/13 06:41:29;;;;;;;14.32;7.45;;;;;;;16.26;63.14;95334.47;5112230;28;20252;-70
2022/10/13 06:43:56;;;;;;;12.32;6.80;;;;;;;16.68;62.33;95336.84;5111739;28;20229;-70
2022/10/13 06:46:23;;;;;;;15.85;8.00;;;;;;;16.63;61.84;95337.91;5112208;28;20623;-70
2022/10/13 06:48:50;;;;;;;16.08;8.27;;;;;;;16.21;62.80;95323.78;5111708;28;20205;-70
2022/10/13 06:51:17;;;;;;;16.67;9.63;;;;;;;15.14;66.01;95332.47;5111924;28;20208;-70
2022/10/13 06:53:46;;;;;;;24.38;9.82;;;;;;;14.87;67.17;95323.78;5111723;28;20256;-70
2022/10/13 06:56:13;;;;;;;14.57;8.38;;;;;;;14.73;67.87;95331.47;5111869;28;20270;-70
2022/10/13 06:58:40;;;;;;;17.90;9.25;;;;;;;15.33;66.50;95324.53;5111626;28;20230;-70
2022/10/13 07:01:07;;;;;;;13.90;7.55;;;;;;;14.91;67.78;95330.16;5111576;28;20236;-70
2022/10/13 07:03:34;;;;;;;25.30;13.82;;;;;;;14.80;68.01;95329.00;5110906;28;20237;-70
2022/10/13 07:06:02;;;;;;;23.27;13.40;;;;;;;14.60;69.20;95329.84;5110738;28;20282;-70
2022/10/13 07:08:29;;;;;;;15.48;8.68;;;;;;;14.75;69.09;95321.03;5110741;28;20201;-70
2022/10/13 07:10:57;;;;;;;18.05;8.57;;;;;;;15.06;68.02;95325.19;5111299;28;20657;-70
2022/10/13 07:13:25;;;;;;;14.82;8.25;;;;;;;14.57;68.80;95327.78;5111353;28;20633;-70
2022/10/13 07:15:52;;;;;;;15.73;8.77;;;;;;;14.80;68.67;95323.53;5097158;28;21056;-70
2022/10/13 07:18:18;;;;;;;15.48;8.32;;;;;;;15.06;67.64;95322.44;5111244;28;20233;-70
2022/10/13 07:20:46;;;;;;;16.00;8.45;;;;;;;14.67;68.80;95324.63;5110931;28;20225;-70
2022/10/13 07:23:13;;;;;;;20.90;8.90;;;;;;;15.05;68.27;95318.91;5093409;28;20194;-70
2022/10/13 07:25:39;;;;;;;14.73;7.65;;;;;;;14.75;68.38;95326.50;5105385;28;20590;-70
2022/10/13 07:28:08;;;;;;;19.92;9.13;;;;;;;14.60;68.72;95329.84;5110642;28;20224;-70
2022/10/13 07:30:35;;;;;;;24.80;13.23;;;;;;;14.37;69.75;95336.75;5111116;28;20206;-70
2022/10/13 07:33:02;;;;;;;17.25;9.10;;;;;;;14.47;70.47;95341.84;5111175;28;20259;-70
2022/10/13 07:35:28;;;;;;;22.92;12.70;;;;;;;14.84;69.38;95329.13;5110493;28;20668;-70
2022/10/13 07:37:56;;;;;;;23.15;13.98;;;;;;;14.85;68.69;95326.06;5109664;28;20217;-70
2022/10/13 07:40:23;;;;;;;25.02;14.02;;;;;;;14.86;68.79;95327.66;5110542;28;20282;-70
2022/10/13 07:42:50;;;;;;;25.08;14.65;;;;;;;14.41;69.73;95327.59;5101589;28;20199;-70
2022/10/13 07:45:19;;;;;;;22.15;13.70;;;;;;;14.50;69.96;95322.06;5089875;28;20202;-70
2022/10/13 07:47:46;;;;;;;17.83;10.23;;;;;;;14.67;70.14;95324.63;5089774;28;20209;-70
2022/10/13 07:50:13;;;;;;;15.85;8.85;;;;;;;14.59;69.04;95328.25;5106373;28;20229;-70
2022/10/13 07:52:39;;;;;;;16.75;9.15;;;;;;;14.97;68.17;95319.81;5110446;28;20197;-70
2022/10/13 07:55:08;;;;;;;19.73;8.57;;;;;;;14.96;68.65;95322.88;5110033;28;20194;-70
2022/10/13 07:57:34;;;;;;;18.85;8.85;;;;;;;15.20;67.45;95320.19;5110186;28;20254;-70
2022/10/13 08:00:02;;;;;;;17.92;9.48;;;;;;;15.35;67.63;95316.78;5110147;28;20229;-70
2022/10/13 08:02:30;;;;;;;20.63;14.02;;;;;;;15.06;68.44;95314.25;5110419;28;20230;-70
2022/10/13 08:04:57;;;;;;;14.73;8.38;;;;;;;15.28;66.86;95314.66;5096827;28;20193;-70
2022/10/13 08:07:24;;;;;;;16.95;8.57;;;;;;;15.74;66.30;95307.13;5110354;28;20605;-71
2022/10/13 08:09:50;;;;;;;17.85;9.18;;;;;;;15.97;65.62;95310.19;5091803;28;20248;-71
2022/10/13 08:12:17;;;;;;;14.77;8.38;;;;;;;15.64;66.07;95316.59;5089652;28;20195;-70
2022/10/13 08:14:44;;;;;;;23.15;14.52;;;;;;;15.50;66.62;95313.38;5088342;28;20250;-70
2022/10/13 08:17:11;;;;;;;13.77;9.15;;;;;;;15.66;65.87;95310.00;5089256;28;20226;-70
2022/10/13 08:19:39;;;;;;;20.52;9.82;;;;;;;15.75;65.96;95310.66;5087528;28;20290;-70
2022/10/13 08:22:06;;;;;;;20.50;10.15;;;;;;;15.46;66.17;95306.22;5092886;28;20259;-70
2022/10/13 08:24:32;;;;;;;15.48;8.05;;;;;;;15.62;66.52;95305.22;5088745;28;20605;-70
2022/10/13 08:27:00;;;;;;;18.08;9.63;;;;;;;15.82;66.15;95297.22;5089055;28;20210;-70
2022/10/13 08:29:26;;;;;;;25.00;13.65;;;;;;;16.21;65.66;95304.66;5088303;28;20650;-70
2022/10/13 08:31:53;;;;;;;18.83;9.25;;;;;;;16.14;64.09;95296.22;5089825;28;20198;-71
2022/10/13 08:34:21;;;;;;;18.38;9.18;;;;;;;15.82;65.21;95302.69;5088417;28;20202;-70
2022/10/13 08:36:55;;;;;;;14.90;7.95;;;;;;;15.36;66.83;95296.56;5087386;28;20801;-70
2022/10/13 08:39:23;;;;;;;20.52;10.25;;;;;;;15.36;67.86;95290.28;5086721;28;20215;-71
2022/10/13 08:41:50;;;;;;;19.65;9.65;;;;;;;15.57;67.03;95291.81;5086665;28;20271;-71
2022/10/13 08:44:23;;;;;;;25.80;10.63;;;;;;;15.31;67.60;95299.50;5087725;28;20202;-70
2022/10/13 08:46:59;;;;;;;18.50;10.75;;;;;;;15.54;66.55;95295.19;5088876;28;20213;-71
2022/10/13 08:49:26;;;;;;;16.67;10.00;;;;;;;16.11;65.44;95290.69;5086677;28;20281;-70
2022/10/13 08:51:55;;;;;;;21.95;11.52;;;;;;;16.25;65.82;95283.69;5088133;28;20220;-70
2022/10/13 08:54:25;;;;;;;20.33;10.98;;;;;;;16.30;64.43;95285.38;5089224;28;20205;-70
2022/10/13 08:56:52;;;;;;;17.70;9.80;;;;;;;16.48;63.67;95277.66;5092047;28;20234;-70
2022/10/13 08:59:20;;;;;;;25.23;14.60;;;;;;;16.72;64.24;95269.34;5089535;28;20275;-70
2022/10/13 09:01:52;;;;;;;26.77;15.48;;;;;;;16.94;63.55;95268.78;5091958;28;20314;-70
2022/10/13 09:04:30;;;;;;;18.73;10.30;;;;;;;16.84;63.58;95266.53;5109567;28;20255;-70
2022/10/13 09:07:04;;;;;;;20.27;10.43;;;;;;;17.03;63.02;95261.19;5092238;28;20198;-71
2022/10/13 09:09:32;;;;;;;30.27;15.80;;;;;;;16.99;62.25;95263.03;5094830;28;20193;-71
2022/10/13 09:11:59;;;;;;;27.52;16.42;;;;;;;16.68;63.27;95262.97;5094435;28;20722;-72
2022/10/13 09:14:28;;;;;;;30.25;17.13;;;;;;;16.66;64.07;95259.81;5107592;28;20638;-70
2022/10/13 09:16:57;;;;;;;29.67;15.70;;;;;;;16.53;65.38;95266.47;5090875;28;20216;-70
2022/10/13 09:19:27;;;;;;;25.23;16.30;;;;;;;16.39;63.75;95260.63;5085607;28;20226;-71
2022/10/13 09:21:58;;;;;;;24.15;11.77;;;;;;;16.15;65.28;95262.28;5086961;28;20194;-72
2022/10/13 09:24:30;;;;;;;24.23;12.18;;;;;;;16.08;65.10;95256.63;5086264;28;20190;-70
2022/10/13 09:27:06;;;;;;;21.10;11.52;;;;;;;16.52;63.79;95249.28;5091800;28;20221;-71
2022/10/13 09:29:33;;;;;;;28.45;16.67;;;;;;;16.87;63.55;95238.47;5099488;28;20210;-71
2022/10/13 09:32:15;;;;;;;28.08;15.52;;;;;;;17.27;61.53;95234.75;5100331;28;20214;-71
2022/10/13 09:34:42;;;;;;;21.15;10.40;;;;;;;17.01;61.87;95244.31;5075139;28;20256;-69
2022/10/13 09:37:19;;;;;;;28.67;15.05;;;;;;;16.89;61.99;95225.25;5090723;28;20210;-71
2022/10/13 09:40:02;;;;;;;27.38;14.07;;;;;;;17.12;61.26;95227.34;5096471;28;20240;-71
2022/10/13 09:42:31;;;;;;;21.98;13.25;;;;;;;17.01;62.22;95221.63;5088023;28;20286;-70
2022/10/13 09:45:01;;;;;;;19.85;12.35;;;;;;;16.77;62.46;95222.59;5086567;28;20313;-70
2022/10/13 09:47:31;;;;;;;23.63;12.80;;;;;;;16.84;61.81;95228.22;5092951;28;20201;-69
2022/10/13 09:50:02;;;;;;;19.38;11.68;;;;;;;17.09;60.13;95228.03;5087822;28;20197;-71
2022/10/13 09:52:29;;;;;;;20.88;12.40;;;;;;;17.01;60.77;95225.16;5090464;28;20234;-71
2022/10/13 09:54:59;;;;;;;20.02;11.73;;;;;;;17.13;60.98;95228.94;5092437;28;20650;-71
2022/10/13 09:57:36;;;;;;;17.15;11.77;;;;;;;17.20;61.58;95223.66;5107649;28;20344;-71
2022/10/13 10:00:12;;;;;;;22.27;12.45;;;;;;;17.50;60.28;95224.72;5105520;28;20230;-72
2022/10/13 10:02:44;;;;;;;21.63;12.60;;;;;;;17.60;60.36;95209.69;5087334;28;20230;-70
2022/10/13 10:05:21;;;;;;;22.00;12.48;;;;;;;17.18;61.37;95217.72;5110935;28;20648;-71
2022/10/13 10:07:48;;;;;;;21.10;13.65;;;;;;;16.82;61.14;95203.16;5104511;28;20197;-70
2022/10/13 10:10:28;;;;;;;25.27;12.23;;;;;;;17.25;60.61;95204.19;5104485;28;20657;-71
2022/10/13 10:12:57;;;;;;;20.48;12.13;;;;;;;17.44;60.18;95204.25;5090980;28;20729;-70
2022/10/13 10:15:32;;;;;;;19.23;11.73;;;;;;;17.57;59.95;95200.25;5089175;28;20306;-71
2022/10/13 10:18:05;;;;;;;20.30;11.60;;;;;;;17.75;59.49;95189.72;5090565;28;20282;-71
2022/10/13 10:20:47;;;;;;;17.40;11.45;;;;;;;18.05;58.97;95181.69;5092195;28;20215;-70
2022/10/13 10:23:19;;;;;;;20.75;11.98;;;;;;;17.88;59.53;95187.63;5094335;28;20201;-70
2022/10/13 10:25:50;;;;;;;20.17;10.95;;;;;;;17.87;60.13;95186.03;5110352;28;20704;-70
2022/10/13 10:28:42;;;;;;;17.10;11.05;;;;;;;18.09;58.95;95188.03;5102006;28;20186;-70
2022/10/13 10:31:19;;;;;;;19.63;11.10;;;;;;;18.37;57.86;95183.13;5110346;28;20206;-71
2022/10/13 10:33:56;;;;;;;16.35;10.57;;;;;;;18.22;58.04;95170.28;5110648;28;20197;-70
2022/10/13 10:36:31;;;;;;;18.35;11.57;;;;;;;18.72;56.70;95165.75;5108122;28;20257;-71
2022/10/13 10:39:08;;;;;;;17.88;11.18;;;;;;;19.27;54.99;95168.97;5097150;28;20201;-71
2022/10/13 10:41:44;;;;;;;17.70;11.13;;;;;;;19.51;54.11;95152.09;5109221;28;20290;-71
2022/10/13 10:44:15;;;;;;;21.00;10.82;;;;;;;20.22;53.47;95142.75;5109983;28;20235;-70
2022/10/13 10:46:46;;;;;;;16.05;10.25;;;;;;;20.30;52.47;95143.63;5106300;28;20198;-70
2022/10/13 10:49:17;;;;;;;20.15;10.35;;;;;;;20.29;52.37;95142.03;5095990;28;20198;-70
2022/10/13 10:51:45;;;;;;;21.83;10.82;;;;;;;19.71;54.01;95136.22;5109854;28;20198;-70
2022/10/13 10:54:27;;;;;;;16.17;10.35;;;;;;;18.97;55.55;95142.22;5109588;28;20206;-70
2022/10/13 10:56:59;;;;;;;16.25;10.38;;;;;;;19.21;55.58;95132.00;5105589;28;20258;-71
2022/10/13 10:59:41;;;;;;;19.77;10.32;;;;;;;18.66;56.16;95134.25;5106109;28;20214;-71
2022/10/13 11:02:30;;;;;;;16.05;9.82;;;;;;;19.06;55.66;95128.22;5109773;28;20310;-70
2022/10/13 11:04:59;;;;;;;15.45;9.13;;;;;;;19.39;54.64;95122.06;5108486;28;20746;-71
2022/10/13 11:07:55;;;;;;;14.73;10.18;;;;;;;19.67;53.59;95122.47;5099174;28;20690;-72
2022/10/13 11:10:25;;;;;;;17.70;11.10;;;;;;;19.59;54.19;95115.28;5082818;28;21115;-72
2022/10/13 11:13:26;;;;;;;19.40;11.70;;;;;;;19.47;55.39;95112.72;5089008;28;20202;-72
2022/10/13 11:15:54;;;;;;;22.42;11.63;;;;;;;19.50;55.62;95110.06;5087395;28;20661;-70
2022/10/13 11:19:04;;;;;;;18.30;11.93;;;;;;;18.93;56.76;95111.16;5109014;28;20202;-71
2022/10/13 11:22:10;;;;;;;19.13;11.18;;;;;;;19.20;55.08;95103.72;5106168;28;20210;-71
2022/10/13 11:24:46;;;;;;;24.20;12.07;;;;;;;20.13;53.83;95097.44;5092646;28;20258;-72
2022/10/13 11:27:19;;;;;;;20.90;12.15;;;;;;;20.83;52.54;95093.78;5109405;28;20777;-72
2022/10/13 11:29:57;;;;;;;18.05;11.63;;;;;;;20.82;51.95;95092.22;5107383;28;20243;-71
2022/10/13 11:32:55;;;;;;;18.50;11.15;;;;;;;21.04;51.23;95082.97;5086767;28;20224;-72
2022/10/13 11:35:25;;;;;;;18.70;11.23;;;;;;;20.68;52.35;95081.09;5090890;28;20669;-71
2022/10/13 11:38:06;;;;;;;16.17;10.57;;;;;;;21.10;51.19;95075.91;5111127;28;20210;-71
2022/10/13 11:40:39;;;;;;;22.38;12.45;;;;;;;20.53;52.02;95072.72;5106764;28;20246;-71
2022/10/13 11:43:29;;;;;;;18.98;12.02;;;;;;;19.86;53.82;95075.53;5089934;28;20194;-72